Terminal Aerodrome Forecast
Issued by NWS

Home | Current Version | Previous Version | Text Only | Print | Product List | Glossary Off
Versions: 1 2 3 4 5 6 7 8 9 10 11 12 13 14 15 16 17 18 19 20 21 22 23 24 25 26

000
FTUS42 KMHX 130800 AAB
TAFISO
TAF AMD
KISO 130849Z 1309/1406 00000KT 2SM BR OVC004
     FM131400 VRB04KT P6SM VCSH OVC020
     FM131800 21005KT P6SM VCTS BKN035CB
      TEMPO 1320/1324 3SM TSRA BKN020CB
      AMD LTD TO CLD VIS AND WIND=

USA.gov is the U.S. government's official web portal to all federal, state and local government web resources and services.